Time;durP1;ratioP1;P1;durP2;ratioP2;P2;SDS_P1;SDS_P2;PMS_P1;PMS_P2;Temp;Humidity;BMP_temperature;BMP_pressure;BME280_temperature;BME280_humidity;BME280_pressure;Samples;Min_cycle;Max_cycle;Signal;HPM_P1;HPM_P2
2024/01/07 00:00:03;;;;;;;11.88;10.75;;;1.20;99.90;;;;;;5001691;28;20041;-86
2024/01/07 00:02:30;;;;;;;12.60;10.23;;;0.10;99.90;;;;;;5017446;28;20041;-86
2024/01/07 00:04:56;;;;;;;13.85;11.25;;;0.10;99.90;;;;;;5034009;28;20064;-87
2024/01/07 00:07:22;;;;;;;13.30;11.02;;;0.10;99.90;;;;;;5001210;28;20044;-85
2024/01/07 00:09:47;;;;;;;12.65;10.00;;;0.30;99.90;;;;;;5001955;28;20042;-85
2024/01/07 00:12:13;;;;;;;11.23;10.15;;;0.60;99.90;;;;;;5033830;28;20107;-84
2024/01/07 00:14:39;;;;;;;12.32;10.52;;;0.10;99.90;;;;;;5033782;28;20537;-86
2024/01/07 00:17:05;;;;;;;10.82;9.73;;;0.10;99.90;;;;;;5017254;28;20053;-85
2024/01/07 00:19:35;;;;;;;10.98;9.90;;;0.10;99.90;;;;;;5000974;28;20099;-86
2024/01/07 00:22:01;;;;;;;10.80;9.77;;;1.10;99.90;;;;;;5034445;28;20056;-85
2024/01/07 00:24:28;;;;;;;8.90;8.02;;;0.40;99.90;;;;;;5000854;28;20053;-85
2024/01/07 00:26:55;;;;;;;9.20;8.40;;;0.10;99.90;;;;;;5001339;28;20072;-85
2024/01/07 00:29:20;;;;;;;11.23;9.63;;;0.10;99.90;;;;;;5033437;28;20053;-85
2024/01/07 00:31:46;;;;;;;11.25;9.80;;;0.20;99.90;;;;;;5017035;28;20049;-85
2024/01/07 00:34:12;;;;;;;11.32;10.25;;;1.00;99.90;;;;;;5017533;28;20045;-85
2024/01/07 00:36:38;;;;;;;10.15;9.18;;;0.30;99.90;;;;;;5000534;28;20172;-85
2024/01/07 00:39:03;;;;;;;11.15;10.00;;;0.20;99.90;;;;;;5033358;28;20052;-85
2024/01/07 00:41:30;;;;;;;11.57;10.32;;;0.20;99.90;;;;;;5016651;28;20045;-84
2024/01/07 00:43:56;;;;;;;11.10;10.00;;;0.10;99.90;;;;;;5000310;28;20041;-85
2024/01/07 00:46:22;;;;;;;10.30;9.30;;;0.10;99.90;;;;;;5016327;28;20045;-86
2024/01/07 00:48:47;;;;;;;10.10;9.18;;;0.10;99.90;;;;;;5016455;28;20156;-85
2024/01/07 00:51:13;;;;;;;10.43;9.52;;;0.10;99.90;;;;;;5016762;28;20045;-86
2024/01/07 00:53:39;;;;;;;11.75;10.65;;;0.10;99.90;;;;;;5016455;28;20072;-85
2024/01/07 00:56:05;;;;;;;10.65;9.68;;;0.10;99.90;;;;;;5016653;28;20052;-86
2024/01/07 00:58:31;;;;;;;10.85;9.85;;;0.10;99.90;;;;;;4999828;28;20184;-86
2024/01/07 01:00:57;;;;;;;11.95;10.85;;;1.10;99.90;;;;;;5017366;28;20154;-85
2024/01/07 01:03:22;;;;;;;10.20;9.30;;;0.10;99.90;;;;;;5033544;28;20096;-85
2024/01/07 01:05:48;;;;;;;10.57;9.52;;;0.10;99.90;;;;;;5016491;28;20076;-86
2024/01/07 01:08:14;;;;;;;10.50;9.52;;;0.10;99.90;;;;;;5000765;28;20051;-85
2024/01/07 01:10:39;;;;;;;11.20;10.10;;;0.10;99.90;;;;;;5016452;28;20064;-85
2024/01/07 01:13:05;;;;;;;11.90;10.73;;;0.10;99.90;;;;;;5016741;28;20099;-85
2024/01/07 01:15:31;;;;;;;12.48;11.30;;;0.10;99.90;;;;;;5000153;28;20049;-86
2024/01/07 01:17:56;;;;;;;10.50;9.60;;;0.50;99.90;;;;;;5016611;28;20049;-85
2024/01/07 01:20:22;;;;;;;11.85;10.10;;;0.80;99.90;;;;;;5000686;28;20049;-85
2024/01/07 01:22:48;;;;;;;11.60;10.48;;;0.20;99.90;;;;;;5032843;28;20470;-86
2024/01/07 01:25:14;;;;;;;11.75;10.45;;;0.20;99.90;;;;;;5032722;28;20045;-87
2024/01/07 01:27:39;;;;;;;11.85;10.68;;;0.80;99.90;;;;;;5000148;28;20430;-86
2024/01/07 01:30:05;;;;;;;13.45;10.55;;;0.20;99.90;;;;;;4983924;28;20049;-85
2024/01/07 01:32:31;;;;;;;10.00;9.02;;;0.20;99.90;;;;;;5016331;28;20054;-86
2024/01/07 01:34:57;;;;;;;9.60;8.80;;;0.60;99.90;;;;;;5016890;28;20045;-86
2024/01/07 01:37:22;;;;;;;10.57;9.15;;;1.10;99.90;;;;;;5016024;28;20111;-86
2024/01/07 01:39:48;;;;;;;10.13;9.23;;;0.20;99.90;;;;;;4999493;28;20049;-86
2024/01/07 01:42:14;;;;;;;10.40;9.40;;;0.20;99.90;;;;;;5015966;28;20051;-85
2024/01/07 01:44:39;;;;;;;8.98;8.07;;;0.20;99.90;;;;;;5016294;28;20048;-87
2024/01/07 01:47:07;;;;;;;8.82;7.93;;;0.20;99.90;;;;;;4999920;28;20110;-86
2024/01/07 01:49:32;;;;;;;10.00;8.95;;;1.10;99.90;;;;;;5016255;28;20053;-87
2024/01/07 01:51:58;;;;;;;9.38;8.55;;;0.10;99.90;;;;;;5015809;28;20045;-87
2024/01/07 01:54:25;;;;;;;10.35;9.35;;;0.30;99.90;;;;;;5032143;28;20049;-88
2024/01/07 01:56:51;;;;;;;9.55;8.75;;;0.70;99.90;;;;;;5016762;28;20119;-87
2024/01/07 01:59:18;;;;;;;9.50;8.50;;;0.10;99.90;;;;;;5003425;28;20140;-86
2024/01/07 02:01:44;;;;;;;10.00;8.73;;;0.10;99.90;;;;;;5020135;28;20093;-86
2024/01/07 02:04:10;;;;;;;9.38;8.57;;;0.10;99.90;;;;;;5035601;28;20526;-87
2024/01/07 02:06:36;;;;;;;9.07;8.27;;;0.20;99.90;;;;;;5019970;28;20123;-87
2024/01/07 02:09:02;;;;;;;9.45;8.55;;;0.10;99.90;;;;;;5019374;28;20041;-87
2024/01/07 02:11:28;;;;;;;9.57;8.40;;;0.10;99.90;;;;;;5019808;28;20045;-85
2024/01/07 02:13:53;;;;;;;10.02;9.18;;;0.10;99.90;;;;;;5036068;28;20107;-84
2024/01/07 02:16:19;;;;;;;11.10;8.45;;;0.10;99.90;;;;;;5003238;28;20089;-85
2024/01/07 02:18:46;;;;;;;9.85;8.55;;;0.10;99.90;;;;;;5020285;28;20045;-85
2024/01/07 02:21:13;;;;;;;10.75;9.65;;;0.10;99.90;;;;;;5019443;28;20048;-85
2024/01/07 02:23:39;;;;;;;10.57;9.13;;;0.10;99.90;;;;;;5035672;28;20038;-84
2024/01/07 02:26:05;;;;;;;10.73;9.70;;;0.10;99.90;;;;;;5002744;28;20083;-85
2024/01/07 02:28:32;;;;;;;10.48;9.48;;;0.60;99.90;;;;;;5019368;28;20045;-85
2024/01/07 02:30:58;;;;;;;10.75;9.65;;;0.50;99.90;;;;;;5036121;28;20053;-85
2024/01/07 02:33:24;;;;;;;9.88;8.95;;;0.00;99.90;;;;;;5036559;28;20386;-85
2024/01/07 02:35:50;;;;;;;10.32;9.27;;;0.00;99.90;;;;;;5020024;28;20049;-85
2024/01/07 02:38:15;;;;;;;10.40;9.50;;;-0.10;99.90;;;;;;5035823;28;20049;-85
2024/01/07 02:40:41;;;;;;;10.05;9.13;;;0.00;99.90;;;;;;5036138;28;20422;-84
2024/01/07 02:43:07;;;;;;;9.57;8.77;;;0.00;99.90;;;;;;5036156;28;20077;-84
2024/01/07 02:45:33;;;;;;;10.75;9.75;;;0.70;99.90;;;;;;5019015;28;20046;-83
2024/01/07 02:47:59;;;;;;;11.90;9.35;;;0.00;99.90;;;;;;5019077;28;20049;-85
2024/01/07 02:50:24;;;;;;;9.05;8.20;;;0.90;99.90;;;;;;5019004;28;20447;-85
2024/01/07 02:52:50;;;;;;;9.50;8.48;;;0.00;99.90;;;;;;5018682;28;20402;-84
2024/01/07 02:55:16;;;;;;;11.88;9.20;;;0.00;99.90;;;;;;5018811;28;20041;-85
2024/01/07 02:57:41;;;;;;;8.45;7.63;;;0.00;99.90;;;;;;5018839;28;20041;-84
2024/01/07 03:00:08;;;;;;;8.63;7.82;;;0.00;99.90;;;;;;5019072;28;20053;-86
2024/01/07 03:02:33;;;;;;;9.05;8.20;;;0.00;99.90;;;;;;5002284;28;20110;-85
2024/01/07 03:04:59;;;;;;;9.98;8.20;;;0.00;99.90;;;;;;5035173;28;20049;-86
2024/01/07 03:07:25;;;;;;;9.55;8.05;;;0.00;99.90;;;;;;5003072;28;20049;-86
2024/01/07 03:09:50;;;;;;;8.43;7.57;;;0.50;99.90;;;;;;5017891;28;20068;-84
2024/01/07 03:12:17;;;;;;;10.23;8.02;;;0.00;99.90;;;;;;5018604;28;20049;-86
2024/01/07 03:14:42;;;;;;;9.50;7.97;;;0.00;99.90;;;;;;5018652;28;20045;-86
2024/01/07 03:17:10;;;;;;;9.10;8.20;;;0.10;99.90;;;;;;5002247;28;20041;-84
2024/01/07 03:19:37;;;;;;;8.77;7.93;;;0.00;99.90;;;;;;5019171;28;20390;-85
2024/01/07 03:22:03;;;;;;;8.80;7.68;;;-0.10;99.90;;;;;;5018564;28;20101;-86
2024/01/07 03:24:29;;;;;;;9.20;8.27;;;-0.10;99.90;;;;;;5002914;28;20049;-85
2024/01/07 03:26:54;;;;;;;9.25;8.18;;;0.00;99.90;;;;;;5019089;28;20045;-84
2024/01/07 03:29:20;;;;;;;8.40;7.60;;;-0.10;99.90;;;;;;5034701;28;20515;-85
2024/01/07 03:31:46;;;;;;;7.80;7.07;;;0.50;99.90;;;;;;5018666;28;20049;-84
2024/01/07 03:34:11;;;;;;;9.18;7.85;;;0.90;99.90;;;;;;5018398;28;20051;-87
2024/01/07 03:36:37;;;;;;;10.77;8.27;;;-0.10;99.90;;;;;;5035268;28;20067;-85
2024/01/07 03:39:03;;;;;;;9.15;7.43;;;-0.10;99.90;;;;;;5001790;28;20049;-86
2024/01/07 03:41:28;;;;;;;7.20;6.50;;;-0.10;99.90;;;;;;5002480;28;20459;-86
2024/01/07 03:43:55;;;;;;;7.18;6.47;;;-0.10;99.90;;;;;;5018550;28;20092;-85
2024/01/07 03:46:20;;;;;;;7.38;6.68;;;-0.20;99.90;;;;;;5018244;28;20045;-85
2024/01/07 03:48:46;;;;;;;8.13;7.43;;;-0.20;99.90;;;;;;5018125;28;20519;-85
2024/01/07 03:51:12;;;;;;;9.65;8.48;;;-0.20;99.90;;;;;;5002335;28;20497;-85
2024/01/07 03:53:37;;;;;;;8.70;7.72;;;0.00;99.90;;;;;;5017658;28;20402;-84
2024/01/07 03:56:03;;;;;;;8.48;7.68;;;-0.20;99.90;;;;;;5017718;28;20062;-86
2024/01/07 04:03:40;;;;;;;9.03;8.30;;;-0.20;99.90;;;;;;5323076;22;20173;-83
2024/01/07 04:06:07;;;;;;;9.15;7.50;;;-0.20;99.90;;;;;;5023707;28;20298;-85
2024/01/07 04:08:33;;;;;;;8.93;8.13;;;-0.30;99.90;;;;;;5036952;28;20551;-85
2024/01/07 04:11:02;;;;;;;9.40;8.55;;;-0.30;99.90;;;;;;4988301;28;20049;-84
2024/01/07 04:13:27;;;;;;;8.68;7.80;;;-0.30;99.90;;;;;;5036864;28;20053;-84
2024/01/07 04:15:53;;;;;;;8.20;7.32;;;-0.10;99.90;;;;;;4987937;28;20191;-83
2024/01/07 04:18:19;;;;;;;8.30;7.40;;;-0.30;99.90;;;;;;5020569;28;20052;-84
2024/01/07 04:20:45;;;;;;;10.18;8.50;;;-0.30;99.90;;;;;;5020086;28;20049;-84
2024/01/07 04:23:10;;;;;;;8.82;8.00;;;0.70;99.90;;;;;;5003453;28;20485;-84
2024/01/07 04:25:36;;;;;;;9.35;7.80;;;0.60;99.90;;;;;;5004957;28;20059;-84
2024/01/07 04:28:02;;;;;;;9.70;8.07;;;0.80;99.90;;;;;;5003951;28;20485;-84
2024/01/07 04:30:27;;;;;;;7.07;6.43;;;-0.30;99.90;;;;;;5004059;28;20551;-85
2024/01/07 04:32:53;;;;;;;8.25;7.45;;;-0.30;99.90;;;;;;5004065;28;20040;-84
2024/01/07 04:35:19;;;;;;;8.20;7.40;;;0.80;99.90;;;;;;5020824;28;20441;-84
2024/01/07 04:37:44;;;;;;;6.93;6.30;;;-0.30;99.90;;;;;;5003914;28;20045;-85
2024/01/07 04:40:10;;;;;;;6.53;5.95;;;-0.40;99.90;;;;;;5021007;28;20045;-86
2024/01/07 04:42:36;;;;;;;7.32;6.63;;;-0.40;99.90;;;;;;5036229;28;20123;-84
2024/01/07 04:45:02;;;;;;;7.15;6.40;;;-0.40;99.90;;;;;;5020320;28;20087;-84
2024/01/07 04:47:30;;;;;;;6.88;6.22;;;-0.40;99.90;;;;;;5003317;28;20431;-84
2024/01/07 04:49:56;;;;;;;6.88;6.18;;;0.70;99.90;;;;;;5020301;28;20397;-85
2024/01/07 04:52:23;;;;;;;7.35;6.65;;;-0.40;99.90;;;;;;5004053;28;20099;-85
2024/01/07 04:54:51;;;;;;;7.53;6.93;;;0.30;99.90;;;;;;5036453;28;20045;-85
2024/01/07 04:57:16;;;;;;;6.20;5.65;;;0.50;99.90;;;;;;5037153;28;20059;-85
2024/01/07 04:59:42;;;;;;;6.63;6.00;;;-0.10;99.90;;;;;;5004319;28;20369;-84
2024/01/07 05:02:08;;;;;;;7.18;6.18;;;0.10;99.90;;;;;;5019649;28;20040;-84
2024/01/07 05:04:34;;;;;;;7.40;6.60;;;-0.40;99.90;;;;;;5020582;28;20131;-84
2024/01/07 05:07:00;;;;;;;6.60;6.10;;;-0.40;99.90;;;;;;5003842;28;20523;-84
2024/01/07 05:09:25;;;;;;;6.63;5.93;;;-0.50;99.90;;;;;;5019860;28;20087;-84
2024/01/07 05:11:51;;;;;;;7.30;6.13;;;-0.40;99.90;;;;;;5036216;28;20041;-84
2024/01/07 05:14:17;;;;;;;7.28;6.38;;;0.60;99.90;;;;;;5020011;28;20051;-85
2024/01/07 05:16:42;;;;;;;6.75;6.05;;;-0.50;99.90;;;;;;5019974;28;20079;-85
2024/01/07 05:19:08;;;;;;;6.40;5.85;;;0.80;99.90;;;;;;5003527;28;20052;-84
2024/01/07 05:21:33;;;;;;;6.63;5.95;;;0.70;99.90;;;;;;5003013;28;20045;-85
2024/01/07 05:23:59;;;;;;;6.85;5.50;;;0.60;99.90;;;;;;5019684;28;20087;-85
2024/01/07 05:26:25;;;;;;;6.47;5.75;;;-0.30;99.90;;;;;;5019639;28;20056;-85
2024/01/07 05:28:50;;;;;;;6.18;5.68;;;-0.50;99.90;;;;;;5003108;28;20106;-84
2024/01/07 05:31:19;;;;;;;8.38;5.03;;;0.30;99.90;;;;;;5019587;28;20088;-85
2024/01/07 05:33:45;;;;;;;5.70;5.07;;;0.50;99.90;;;;;;5019114;28;20044;-84
2024/01/07 05:36:12;;;;;;;5.15;4.65;;;0.50;99.90;;;;;;5019689;28;20362;-84
2024/01/07 05:38:38;;;;;;;7.20;4.60;;;-0.40;99.90;;;;;;5020129;28;20056;-84
2024/01/07 05:41:04;;;;;;;4.70;4.30;;;0.90;99.90;;;;;;5019387;28;20045;-85
2024/01/07 05:43:30;;;;;;;5.40;4.68;;;-0.50;99.90;;;;;;5019519;28;20041;-84
2024/01/07 05:45:56;;;;;;;4.63;4.20;;;-0.50;99.90;;;;;;5019666;28;20041;-84
2024/01/07 05:48:22;;;;;;;5.03;4.53;;;0.00;99.90;;;;;;5019252;28;20405;-84
2024/01/07 05:50:49;;;;;;;4.57;4.18;;;-0.50;99.90;;;;;;5035777;28;20055;-85
2024/01/07 05:53:15;;;;;;;4.43;3.83;;;0.50;99.90;;;;;;5019479;28;20493;-85
2024/01/07 05:55:40;;;;;;;4.40;3.97;;;-0.50;99.90;;;;;;5003217;28;20091;-85
2024/01/07 05:58:06;;;;;;;4.22;3.83;;;-0.50;99.90;;;;;;5019634;28;20436;-85
2024/01/07 06:00:32;;;;;;;3.88;3.58;;;-0.30;99.90;;;;;;5019402;28;20525;-85
2024/01/07 06:02:57;;;;;;;6.78;4.10;;;-0.50;99.90;;;;;;5018983;28;20474;-84
2024/01/07 06:05:23;;;;;;;4.25;3.65;;;-0.50;99.90;;;;;;5003771;28;20053;-84
2024/01/07 06:07:49;;;;;;;3.83;3.53;;;-0.50;99.90;;;;;;5019197;28;20045;-84
2024/01/07 06:10:15;;;;;;;4.32;3.67;;;-0.50;99.90;;;;;;5018988;28;20044;-85
2024/01/07 06:12:40;;;;;;;4.38;3.97;;;0.60;99.90;;;;;;5019046;28;20056;-85
2024/01/07 06:15:06;;;;;;;4.07;3.78;;;-0.50;99.90;;;;;;5019708;28;20049;-84
2024/01/07 06:17:32;;;;;;;4.78;3.92;;;-0.50;99.90;;;;;;5019805;28;20048;-85
2024/01/07 06:19:58;;;;;;;5.72;3.78;;;0.40;99.90;;;;;;5019060;28;20132;-85
2024/01/07 06:22:24;;;;;;;3.75;3.45;;;0.10;99.90;;;;;;5002865;28;20380;-85
2024/01/07 06:24:49;;;;;;;3.85;3.47;;;0.50;99.90;;;;;;5002766;28;20049;-85
2024/01/07 06:27:15;;;;;;;3.53;3.22;;;-0.50;99.90;;;;;;5035723;28;20072;-84
2024/01/07 06:29:41;;;;;;;4.40;3.50;;;-0.50;99.90;;;;;;5018924;28;20055;-84
2024/01/07 06:32:06;;;;;;;4.10;3.13;;;-0.40;99.90;;;;;;5018975;28;20048;-85
2024/01/07 06:34:33;;;;;;;3.92;3.50;;;-0.50;99.90;;;;;;5019823;28;20041;-86
2024/01/07 06:36:59;;;;;;;6.03;3.53;;;0.30;99.90;;;;;;5019771;28;20375;-85
2024/01/07 06:39:28;;;;;;;3.63;3.33;;;0.80;99.90;;;;;;5035651;28;20041;-85
2024/01/07 06:41:54;;;;;;;4.53;3.58;;;-0.50;99.90;;;;;;5003697;28;20056;-85
2024/01/07 06:44:19;;;;;;;3.30;3.00;;;-0.20;99.90;;;;;;5003111;28;20045;-85
2024/01/07 06:46:45;;;;;;;3.40;3.10;;;0.10;99.90;;;;;;5006128;28;20052;-84
2024/01/07 06:49:11;;;;;;;3.35;3.03;;;-0.50;99.90;;;;;;5022325;28;20072;-84
2024/01/07 06:51:38;;;;;;;3.90;3.50;;;0.80;99.90;;;;;;5006838;28;20068;-84
2024/01/07 06:54:04;;;;;;;3.63;3.25;;;0.60;99.90;;;;;;5022245;28;20045;-84
2024/01/07 06:56:29;;;;;;;4.30;3.67;;;-0.50;99.90;;;;;;5005891;28;20048;-84
2024/01/07 06:58:55;;;;;;;3.80;3.40;;;-0.50;99.90;;;;;;5022915;28;20045;-84
2024/01/07 07:01:22;;;;;;;3.83;3.45;;;-0.50;99.90;;;;;;5038661;28;20392;-85
2024/01/07 07:03:49;;;;;;;3.88;2.80;;;-0.50;99.90;;;;;;5021824;28;20153;-85
2024/01/07 07:06:15;;;;;;;4.53;3.58;;;-0.50;99.90;;;;;;5021776;28;20504;-85
2024/01/07 07:08:40;;;;;;;3.00;2.70;;;-0.50;99.90;;;;;;5022210;28;20436;-85
2024/01/07 07:11:06;;;;;;;3.65;3.33;;;-0.50;99.90;;;;;;5021594;28;20045;-84
2024/01/07 07:13:32;;;;;;;3.72;3.38;;;0.80;99.90;;;;;;5038386;28;20098;-85
2024/01/07 07:15:58;;;;;;;4.05;3.55;;;-0.50;99.90;;;;;;4989912;28;20465;-85
2024/01/07 07:18:24;;;;;;;3.88;3.58;;;-0.30;99.90;;;;;;5005530;28;20485;-84
2024/01/07 07:20:50;;;;;;;4.10;3.20;;;0.60;99.90;;;;;;5021718;28;20047;-84
2024/01/07 07:23:15;;;;;;;3.42;3.13;;;-0.50;99.90;;;;;;5021668;28;20041;-84
2024/01/07 07:25:41;;;;;;;3.40;3.10;;;0.60;99.90;;;;;;5021909;28;20420;-84
2024/01/07 07:28:07;;;;;;;3.33;2.95;;;-0.50;99.90;;;;;;5038104;28;20139;-84
2024/01/07 07:30:32;;;;;;;3.67;3.38;;;-0.50;99.90;;;;;;5021480;28;20045;-85
2024/01/07 07:32:58;;;;;;;3.55;3.20;;;-0.50;99.90;;;;;;5038100;28;20049;-84
2024/01/07 07:35:24;;;;;;;3.33;3.00;;;-0.60;99.90;;;;;;5005923;28;20079;-85
2024/01/07 07:37:49;;;;;;;3.47;3.17;;;0.10;99.90;;;;;;5005221;28;20052;-85
2024/01/07 07:40:15;;;;;;;3.78;3.28;;;-0.60;99.90;;;;;;5022248;28;20044;-85
2024/01/07 07:42:41;;;;;;;3.05;2.78;;;-0.60;99.90;;;;;;5037745;28;20132;-84
2024/01/07 07:45:07;;;;;;;3.17;2.97;;;-0.60;99.90;;;;;;5004913;28;20135;-84
2024/01/07 07:47:32;;;;;;;3.20;2.90;;;-0.60;99.90;;;;;;5021241;28;20044;-86
2024/01/07 07:49:58;;;;;;;3.35;3.05;;;-0.70;99.90;;;;;;5021266;28;20147;-85
2024/01/07 07:52:25;;;;;;;3.22;2.92;;;-0.70;99.90;;;;;;5021871;28;20052;-84
2024/01/07 07:54:52;;;;;;;3.40;3.03;;;-0.70;99.90;;;;;;5020717;28;20135;-85
2024/01/07 07:57:20;;;;;;;2.90;2.60;;;-0.80;99.90;;;;;;5020780;28;20083;-85
2024/01/07 07:59:46;;;;;;;3.03;2.80;;;-0.20;99.90;;;;;;5021256;28;20459;-85
2024/01/07 08:02:12;;;;;;;2.70;2.50;;;-0.90;99.90;;;;;;4988304;28;20045;-84
2024/01/07 08:04:41;;;;;;;3.10;2.88;;;0.90;99.90;;;;;;5021778;28;20045;-86
2024/01/07 08:07:08;;;;;;;3.95;2.83;;;0.20;99.90;;;;;;5037393;28;20106;-86
2024/01/07 08:09:36;;;;;;;3.40;3.03;;;-1.00;99.90;;;;;;5037330;28;20056;-85
2024/01/07 08:12:03;;;;;;;2.80;2.60;;;-1.00;99.90;;;;;;5020740;28;20496;-78
2024/01/07 08:14:28;;;;;;;3.55;3.25;;;-1.00;99.90;;;;;;5020788;28;20160;-77
2024/01/07 08:16:54;;;;;;;5.13;3.25;;;-0.60;99.90;;;;;;5037187;28;20131;-78
2024/01/07 08:19:20;;;;;;;3.28;2.70;;;-0.80;99.90;;;;;;5020855;28;20045;-77
2024/01/07 08:21:46;;;;;;;3.60;2.97;;;-1.00;99.90;;;;;;5036991;28;20041;-78
2024/01/07 08:24:12;;;;;;;3.85;3.55;;;-1.10;99.90;;;;;;5037529;28;20041;-78
2024/01/07 08:26:38;;;;;;;2.97;2.72;;;-1.10;99.90;;;;;;5036587;28;20166;-78
2024/01/07 08:29:04;;;;;;;3.08;2.78;;;-1.10;99.90;;;;;;5020264;28;20512;-78
2024/01/07 08:31:30;;;;;;;6.35;2.88;;;-1.10;99.90;;;;;;5036873;28;20041;-78
2024/01/07 08:33:55;;;;;;;3.80;3.40;;;-1.10;99.90;;;;;;5021177;28;20049;-79
2024/01/07 08:36:21;;;;;;;4.10;3.17;;;-1.10;99.90;;;;;;5020049;28;20144;-78
2024/01/07 08:38:47;;;;;;;3.80;3.10;;;-1.10;99.90;;;;;;5021129;28;20056;-77
2024/01/07 08:41:15;;;;;;;3.42;3.13;;;0.10;99.90;;;;;;5037063;28;20127;-78
2024/01/07 08:43:41;;;;;;;3.20;2.90;;;-1.00;99.90;;;;;;5036682;28;20040;-79
2024/01/07 08:46:07;;;;;;;2.90;2.70;;;0.00;99.90;;;;;;5020385;28;20051;-77
2024/01/07 08:48:33;;;;;;;3.17;2.95;;;-0.90;99.90;;;;;;5036589;28;20036;-77
2024/01/07 08:50:59;;;;;;;5.95;3.10;;;0.10;99.90;;;;;;5036462;28;20477;-78
2024/01/07 08:53:24;;;;;;;4.07;3.00;;;-0.90;99.90;;;;;;5037148;28;20041;-78
2024/01/07 08:55:51;;;;;;;3.15;2.92;;;-0.90;99.90;;;;;;5019863;28;20366;-77
2024/01/07 08:58:19;;;;;;;3.05;2.83;;;-0.80;99.90;;;;;;5036378;28;20063;-78
2024/01/07 09:00:45;;;;;;;62.10;20.58;;;-0.80;99.90;;;;;;5020563;28;20145;-77
2024/01/07 09:03:11;;;;;;;3.83;2.88;;;0.00;99.90;;;;;;5019451;28;20090;-78
2024/01/07 09:05:37;;;;;;;3.00;2.80;;;-0.80;99.90;;;;;;5019893;28;20432;-76
2024/01/07 09:08:03;;;;;;;2.95;2.60;;;-0.70;99.90;;;;;;5019153;28;20061;-86
2024/01/07 09:10:28;;;;;;;3.08;2.88;;;-0.70;99.90;;;;;;4987495;28;20166;-86
2024/01/07 09:12:54;;;;;;;2.83;2.63;;;0.60;99.90;;;;;;5019253;28;20047;-89
2024/01/07 09:15:20;;;;;;;4.53;2.70;;;-0.60;99.90;;;;;;5004047;28;20099;-88
2024/01/07 09:17:47;;;;;;;2.90;2.60;;;-0.50;99.90;;;;;;5036987;28;20051;-87
2024/01/07 09:20:13;;;;;;;3.20;2.53;;;0.00;99.90;;;;;;5004182;28;20053;-88
2024/01/07 09:22:39;;;;;;;3.50;3.20;;;-0.50;99.90;;;;;;5019690;28;20094;-89
2024/01/07 09:25:06;;;;;;;3.17;2.90;;;-0.40;99.90;;;;;;5019711;28;20550;-91
2024/01/07 09:27:33;;;;;;;3.25;2.95;;;-0.40;99.90;;;;;;5020018;28;20064;-90
2024/01/07 09:29:59;;;;;;;3.35;3.05;;;-0.40;99.90;;;;;;5036500;28;20060;-89
2024/01/07 09:32:25;;;;;;;3.20;2.90;;;0.20;99.90;;;;;;5019111;28;20088;-85
2024/01/07 09:34:51;;;;;;;3.08;2.78;;;0.00;99.90;;;;;;5019276;28;20398;-85
2024/01/07 09:37:17;;;;;;;3.03;2.72;;;-0.20;99.90;;;;;;5035775;28;20060;-87
2024/01/07 09:39:44;;;;;;;2.78;2.50;;;1.30;99.90;;;;;;5019636;28;20440;-85
2024/01/07 09:42:19;;;;;;;2.90;2.50;;;-0.10;99.90;;;;;;5019518;28;20049;-85
2024/01/07 09:44:45;;;;;;;3.30;2.60;;;1.10;99.90;;;;;;5035958;28;20054;-85
2024/01/07 09:47:13;;;;;;;2.75;2.55;;;0.60;99.90;;;;;;5035718;28;20087;-87
2024/01/07 09:49:43;;;;;;;2.20;2.00;;;1.30;99.90;;;;;;5020217;28;20045;-89
2024/01/07 09:52:11;;;;;;;2.63;2.42;;;1.60;99.90;;;;;;5036437;28;20140;-89
2024/01/07 09:54:43;;;;;;;3.25;2.28;;;0.90;99.90;;;;;;5003458;28;20047;-88
2024/01/07 09:57:10;;;;;;;2.42;2.22;;;1.00;99.90;;;;;;5020053;28;20045;-89
2024/01/07 09:59:36;;;;;;;3.05;2.25;;;0.60;99.90;;;;;;5019417;28;20052;-90
2024/01/07 10:02:03;;;;;;;3.03;2.17;;;1.40;99.90;;;;;;5019198;28;20049;-88
2024/01/07 10:04:30;;;;;;;2.13;1.83;;;0.30;99.90;;;;;;4997555;28;20145;-90
2024/01/07 10:06:56;;;;;;;2.70;2.20;;;1.70;99.90;;;;;;5013986;28;20054;-87
2024/01/07 10:09:29;;;;;;;5.95;2.60;;;0.40;99.90;;;;;;5012686;28;20046;-88
2024/01/07 10:11:55;;;;;;;3.13;2.40;;;0.50;99.90;;;;;;4996749;28;20050;-91
2024/01/07 10:14:24;;;;;;;2.30;1.80;;;0.90;99.90;;;;;;4997251;28;20513;-88
2024/01/07 10:16:50;;;;;;;3.63;2.50;;;0.20;99.90;;;;;;4980921;28;20046;-89
2024/01/07 10:19:23;;;;;;;2.45;2.25;;;1.60;99.90;;;;;;5014747;28;20204;-89
2024/01/07 10:22:05;;;;;;;2.40;2.20;;;1.40;99.90;;;;;;4999743;28;20054;-88
2024/01/07 10:24:41;;;;;;;2.47;2.28;;;0.70;99.90;;;;;;5016671;28;20046;-87
2024/01/07 10:27:09;;;;;;;2.60;2.40;;;0.40;99.90;;;;;;5016960;28;20085;-87
2024/01/07 10:29:35;;;;;;;5.50;2.50;;;0.40;99.90;;;;;;5000600;28;20050;-89
2024/01/07 10:32:04;;;;;;;2.75;2.22;;;0.60;99.90;;;;;;5016037;28;20621;-90
2024/01/07 10:34:34;;;;;;;2.60;2.40;;;0.40;99.90;;;;;;5016321;28;20050;-87
2024/01/07 10:37:02;;;;;;;2.63;2.42;;;0.80;99.90;;;;;;4999952;28;20046;-90
2024/01/07 10:39:28;;;;;;;2.63;2.42;;;0.50;99.90;;;;;;4999106;28;20046;-90
2024/01/07 10:41:59;;;;;;;2.75;2.30;;;0.50;99.90;;;;;;5000594;28;20038;-89
2024/01/07 10:44:30;;;;;;;3.78;2.17;;;0.50;99.90;;;;;;4984201;28;20414;-93
2024/01/07 10:46:57;;;;;;;2.53;2.30;;;1.70;99.90;;;;;;5016704;28;20046;-92
2024/01/07 10:49:25;;;;;;;4.22;2.72;;;1.70;99.90;;;;;;4984321;28;20046;-90
2024/01/07 10:52:03;;;;;;;3.00;2.80;;;0.50;99.90;;;;;;4999602;28;20046;-92
2024/01/07 10:54:29;;;;;;;2.72;2.45;;;1.50;99.90;;;;;;5016489;28;20046;-91
2024/01/07 10:56:59;;;;;;;2.95;2.45;;;0.50;99.90;;;;;;4999243;28;20050;-89
2024/01/07 10:59:26;;;;;;;2.20;2.00;;;0.60;99.90;;;;;;4983937;28;20096;-90
2024/01/07 11:01:52;;;;;;;4.63;2.15;;;2.00;99.90;;;;;;5016352;28;20482;-90
2024/01/07 11:04:29;;;;;;;2.58;2.35;;;0.60;99.90;;;;;;5017921;28;20109;-93
2024/01/07 11:07:11;;;;;;;3.00;2.70;;;0.60;99.90;;;;;;5000462;28;20100;-91
2024/01/07 11:09:46;;;;;;;2.85;2.50;;;0.70;99.90;;;;;;5001745;28;20050;-91
2024/01/07 11:12:12;;;;;;;3.40;2.10;;;1.30;99.90;;;;;;5001227;28;20057;-91
2024/01/07 11:14:39;;;;;;;2.40;2.20;;;0.70;99.90;;;;;;4985634;28;20517;-90
2024/01/07 11:17:09;;;;;;;2.70;2.50;;;1.10;99.90;;;;;;5015538;28;20050;-90
2024/01/07 11:19:38;;;;;;;3.50;2.63;;;0.70;99.90;;;;;;4999124;28;20045;-90
2024/01/07 11:22:24;;;;;;;2.58;2.35;;;0.70;99.90;;;;;;4983040;28;20038;-91
2024/01/07 11:24:55;;;;;;;3.63;2.17;;;0.80;99.90;;;;;;4999779;28;20383;-90
2024/01/07 11:27:22;;;;;;;2.25;2.05;;;0.70;99.90;;;;;;4999498;28;20057;-88
2024/01/07 11:30:20;;;;;;;3.47;2.58;;;0.70;99.90;;;;;;4983568;28;20176;-87
2024/01/07 11:32:48;;;;;;;2.53;2.03;;;0.70;99.90;;;;;;4974323;28;20375;-90
2024/01/07 11:35:15;;;;;;;2.50;2.10;;;0.70;99.90;;;;;;4982854;28;20046;-89
2024/01/07 11:37:41;;;;;;;3.67;2.20;;;0.60;99.90;;;;;;4998583;28;20485;-87
2024/01/07 11:40:08;;;;;;;2.72;2.53;;;0.60;99.90;;;;;;4998866;28;20057;-88
2024/01/07 11:42:34;;;;;;;2.75;2.33;;;0.60;99.90;;;;;;5014674;28;20056;-91
2024/01/07 11:45:00;;;;;;;2.30;2.10;;;1.40;99.90;;;;;;4999462;28;20049;-92
2024/01/07 11:47:28;;;;;;;2.90;2.58;;;0.70;99.90;;;;;;4983222;28;20085;-93
2024/01/07 11:49:54;;;;;;;3.17;2.60;;;0.70;99.90;;;;;;5003889;28;20179;-92
2024/01/07 11:52:20;;;;;;;3.10;2.75;;;1.50;99.90;;;;;;4986377;28;20081;-92
2024/01/07 11:54:48;;;;;;;3.67;2.67;;;1.90;99.90;;;;;;5000520;28;20050;-91
2024/01/07 11:57:14;;;;;;;3.13;2.83;;;2.60;99.90;;;;;;5001354;28;20085;-93
2024/01/07 11:59:39;;;;;;;3.22;2.55;;;1.60;99.90;;;;;;4982930;28;20137;-93
2024/01/07 12:02:05;;;;;;;2.85;2.30;;;1.90;99.90;;;;;;4999120;28;20133;-90
2024/01/07 12:04:32;;;;;;;3.63;2.65;;;2.20;99.90;;;;;;5015124;28;20058;-92
2024/01/07 12:06:58;;;;;;;3.22;2.42;;;2.10;99.90;;;;;;5016465;28;20111;-91
2024/01/07 12:09:25;;;;;;;2.53;2.30;;;0.90;99.90;;;;;;4998557;28;20450;-89
2024/01/07 12:11:51;;;;;;;3.55;2.60;;;2.70;99.90;;;;;;5014135;28;20046;-89
2024/01/07 12:14:18;;;;;;;3.90;2.50;;;2.30;99.90;;;;;;4998595;28;20054;-88
2024/01/07 12:16:46;;;;;;;3.03;2.72;;;0.80;99.90;;;;;;5014208;28;20453;-91
2024/01/07 12:19:12;;;;;;;2.83;2.50;;;0.90;99.90;;;;;;4981674;28;20053;-89
2024/01/07 12:21:39;;;;;;;2.70;2.50;;;2.40;99.90;;;;;;5014339;28;20505;-90
2024/01/07 12:24:06;;;;;;;3.05;2.78;;;2.50;99.90;;;;;;5013624;28;20080;-90
2024/01/07 12:26:34;;;;;;;3.65;2.80;;;0.90;99.90;;;;;;4998590;28;20050;-91
2024/01/07 12:29:03;;;;;;;4.78;2.63;;;1.30;99.90;;;;;;4997952;28;20095;-89
2024/01/07 12:31:31;;;;;;;3.53;2.65;;;1.70;99.90;;;;;;4981819;28;20057;-90
2024/01/07 12:33:57;;;;;;;3.58;2.83;;;2.70;99.90;;;;;;4997495;28;20046;-88
2024/01/07 12:36:23;;;;;;;3.50;3.05;;;3.20;99.90;;;;;;4997662;28;20052;-91
2024/01/07 12:38:51;;;;;;;4.03;3.35;;;2.30;99.90;;;;;;5014199;28;20045;-92
2024/01/07 12:41:17;;;;;;;3.90;3.47;;;1.90;99.90;;;;;;4997764;28;20548;-89
2024/01/07 12:43:43;;;;;;;4.13;3.42;;;1.80;99.90;;;;;;4996682;28;20445;-91
2024/01/07 12:46:08;;;;;;;3.70;3.40;;;1.60;99.90;;;;;;4981980;28;20046;-91
2024/01/07 12:48:34;;;;;;;4.10;3.78;;;2.00;99.90;;;;;;4997405;28;20153;-89
2024/01/07 12:51:01;;;;;;;5.97;4.15;;;0.00;99.90;;;;;;5000444;28;20053;-94